Time;durP1;ratioP1;P1;durP2;ratioP2;P2;SDS_P1;SDS_P2;PMS_P1;PMS_P2;Temp;Humidity;BMP_temperature;BMP_pressure;BME280_temperature;BME280_humidity;BME280_pressure;Samples;Min_cycle;Max_cycle;Signal;HPM_P1;HPM_P2
2022/09/09 00:02:27;;;;;;;0.73;0.73;;;;;;;15.59;72.25;97814.06;6245018;23;20055;-87
2022/09/09 00:05:36;;;;;;;2.20;0.95;;;;;;;15.46;72.25;97805.38;6217538;23;20024;-89
2022/09/09 00:08:04;;;;;;;0.90;0.80;;;;;;;15.47;72.74;97806.19;6244402;23;20022;-86
2022/09/09 00:10:45;;;;;;;1.05;0.80;;;;;;;15.44;72.75;97804.03;6245498;23;20048;-87
2022/09/09 00:13:27;;;;;;;0.90;0.90;;;;;;;15.46;72.79;97804.59;6244217;23;20023;-84
2022/09/09 00:16:00;;;;;;;0.98;0.82;;;;;;;15.44;73.17;97811.97;6244671;23;20027;-84
2022/09/09 00:19:03;;;;;;;1.08;0.98;;;;;;;15.48;73.28;97799.91;6216631;23;20028;-85
2022/09/09 00:21:50;;;;;;;1.00;0.90;;;;;;;15.41;73.36;97801.84;6217719;23;20027;-87
2022/09/09 00:24:44;;;;;;;0.93;0.88;;;;;;;15.32;73.30;97787.44;6243830;22;20058;-84
2022/09/09 00:27:29;;;;;;;0.93;0.80;;;;;;;15.26;73.20;97795.28;6243688;23;20038;-86
2022/09/09 00:30:19;;;;;;;0.90;0.90;;;;;;;15.26;73.74;97792.63;6239890;23;20020;-86
2022/09/09 00:32:48;;;;;;;1.30;0.93;;;;;;;15.25;73.45;97803.44;6216818;23;20042;-87
2022/09/09 00:35:22;;;;;;;1.27;0.82;;;;;;;15.20;73.87;97798.84;6243764;23;20059;-85
2022/09/09 00:37:53;;;;;;;0.70;0.70;;;;;;;15.20;74.20;97793.56;6217300;23;20099;-84
2022/09/09 00:40:34;;;;;;;0.73;0.73;;;;;;;15.17;74.10;97791.41;6244224;23;20047;-88
2022/09/09 00:43:25;;;;;;;1.33;0.68;;;;;;;15.19;74.39;97794.63;6244457;23;20016;-89
2022/09/09 00:46:38;;;;;;;0.88;0.88;;;;;;;15.11;74.42;97787.06;6243540;23;20430;-87
2022/09/09 00:49:26;;;;;;;1.42;0.90;;;;;;;15.13;74.16;97789.47;6244496;23;20421;-89
2022/09/09 00:52:21;;;;;;;0.60;0.60;;;;;;;15.07;74.39;97791.22;6243950;23;20022;-86
2022/09/09 00:55:28;;;;;;;0.60;0.60;;;;;;;15.05;74.30;97785.34;6243715;23;20083;-85
2022/09/09 00:57:55;;;;;;;0.80;0.80;;;;;;;15.02;74.81;97788.47;6216493;23;20460;-84
2022/09/09 01:00:31;;;;;;;1.17;1.00;;;;;;;14.92;75.06;97788.28;6216751;23;20054;-87
2022/09/09 01:03:12;;;;;;;1.33;0.82;;;;;;;14.99;75.72;97805.59;6215970;23;20016;-86
2022/09/09 01:05:53;;;;;;;0.70;0.70;;;;;;;15.05;75.43;97795.91;6217697;23;20091;-86
2022/09/09 01:09:11;;;;;;;0.95;0.80;;;;;;;15.02;74.99;97788.47;6217113;23;20099;-84
2022/09/09 01:12:16;;;;;;;1.10;1.00;;;;;;;14.88;75.70;97795.09;6215892;23;20021;-86
2022/09/09 01:14:52;;;;;;;1.17;1.08;;;;;;;14.84;75.64;97796.56;6243575;23;20142;-87
2022/09/09 01:17:30;;;;;;;1.38;1.05;;;;;;;14.85;75.69;97787.63;6244628;23;20016;-84
2022/09/09 01:20:08;;;;;;;1.45;1.10;;;;;;;14.83;75.91;97790.50;6244249;23;20030;-85
2022/09/09 01:22:50;;;;;;;0.80;0.80;;;;;;;14.83;75.83;97792.34;6243604;23;20043;-84
2022/09/09 01:25:43;;;;;;;1.50;0.90;;;;;;;14.86;75.89;97795.28;6242522;22;20024;-87
2022/09/09 01:28:22;;;;;;;1.38;1.10;;;;;;;14.81;76.06;97791.75;6240147;23;20047;-86
2022/09/09 01:31:02;;;;;;;1.45;1.30;;;;;;;14.71;76.60;97792.38;6243259;23;20023;-86
2022/09/09 01:33:30;;;;;;;2.50;1.17;;;;;;;14.64;76.71;97802.25;6216278;23;20042;-89
2022/09/09 01:36:11;;;;;;;1.23;1.13;;;;;;;14.60;76.68;97798.47;6215828;23;20771;-85
2022/09/09 01:38:39;;;;;;;2.00;1.10;;;;;;;14.64;76.30;97802.25;6243091;23;20020;-88
2022/09/09 01:41:05;;;;;;;1.42;1.00;;;;;;;14.71;76.02;97798.44;6216477;23;20099;-87
2022/09/09 01:43:32;;;;;;;1.10;0.98;;;;;;;14.66;76.21;97806.25;6243226;23;20054;-86
2022/09/09 01:46:03;;;;;;;1.30;1.20;;;;;;;14.64;76.55;97802.25;6243050;23;20043;-87
2022/09/09 01:48:32;;;;;;;1.58;1.00;;;;;;;14.73;76.39;97804.28;6216989;23;20028;-87
2022/09/09 01:50:59;;;;;;;1.30;1.20;;;;;;;14.65;76.53;97794.09;6191546;23;20020;-87
2022/09/09 01:53:26;;;;;;;1.30;1.20;;;;;;;14.58;76.56;97792.63;6217656;23;20091;-88
2022/09/09 01:56:43;;;;;;;1.90;1.20;;;;;;;14.58;76.54;97787.34;6241293;23;20022;-87
2022/09/09 01:59:50;;;;;;;1.45;1.20;;;;;;;14.61;76.91;97795.59;6207196;23;20031;-86
2022/09/09 02:02:23;;;;;;;1.50;1.20;;;;;;;14.50;77.24;97793.75;6242603;23;20017;-85
2022/09/09 02:05:00;;;;;;;1.63;1.48;;;;;;;14.38;77.44;97795.59;6243946;23;20016;-83
2022/09/09 02:07:42;;;;;;;1.50;1.40;;;;;;;14.44;77.78;97792.03;6216426;23;20020;-85
2022/09/09 02:10:19;;;;;;;2.20;1.38;;;;;;;14.44;77.83;97787.53;6243372;23;20042;-84
2022/09/09 02:12:53;;;;;;;2.25;1.35;;;;;;;14.44;77.73;97786.75;6243172;23;20031;-86
2022/09/09 02:15:46;;;;;;;1.40;1.30;;;;;;;14.41;77.77;97777.47;6217122;23;20023;-85
2022/09/09 02:18:19;;;;;;;1.60;1.40;;;;;;;14.44;77.88;97781.47;6242738;23;20463;-87
2022/09/09 02:20:47;;;;;;;1.42;1.33;;;;;;;14.45;77.83;97789.19;6242238;23;20528;-84
2022/09/09 02:23:15;;;;;;;1.92;1.20;;;;;;;14.51;77.36;97789.28;6242492;23;20526;-84
2022/09/09 02:25:44;;;;;;;1.90;1.30;;;;;;;14.57;77.40;97791.78;6215526;23;20024;-86
2022/09/09 02:28:15;;;;;;;1.65;1.42;;;;;;;14.52;77.14;97781.16;6211930;23;20020;-86
2022/09/09 02:30:46;;;;;;;1.40;1.30;;;;;;;14.59;77.22;97781.03;6215791;23;20016;-84
2022/09/09 02:33:14;;;;;;;2.85;1.40;;;;;;;14.55;77.30;97772.75;6242468;23;20030;-86
2022/09/09 02:35:44;;;;;;;2.50;1.30;;;;;;;14.59;77.80;97789.75;6215799;23;20043;-85
2022/09/09 02:38:16;;;;;;;1.67;1.58;;;;;;;14.56;77.22;97779.63;6215609;23;20031;-87
2022/09/09 02:40:42;;;;;;;1.77;1.20;;;;;;;14.65;77.02;97780.09;6242898;23;20338;-86
2022/09/09 02:43:09;;;;;;;1.55;1.35;;;;;;;14.58;77.13;97782.06;6242304;23;20020;-84
2022/09/09 02:46:02;;;;;;;1.92;1.20;;;;;;;14.68;77.31;97780.41;6243668;23;20052;-86
2022/09/09 02:49:06;;;;;;;2.85;1.38;;;;;;;14.65;77.42;97775.63;6243028;23;20024;-88
2022/09/09 02:51:50;;;;;;;1.60;1.40;;;;;;;14.72;77.15;97773.66;6242839;23;20031;-87
2022/09/09 02:54:31;;;;;;;1.33;1.20;;;;;;;14.75;77.47;97777.66;6242323;23;20027;-86
2022/09/09 02:57:10;;;;;;;1.52;1.40;;;;;;;14.70;77.12;97788.94;6216027;23;20016;-87
2022/09/09 02:59:39;;;;;;;2.30;1.20;;;;;;;14.80;76.75;97785.66;6242236;23;20388;-87
2022/09/09 03:02:06;;;;;;;1.42;1.33;;;;;;;14.79;76.92;97788.56;6243163;23;20016;-85
2022/09/09 03:04:36;;;;;;;2.10;1.40;;;;;;;14.71;76.65;97772.03;6242778;23;20016;-91
2022/09/09 03:07:03;;;;;;;2.47;1.33;;;;;;;14.86;76.89;97779.44;6243057;23;20016;-85
2022/09/09 03:09:32;;;;;;;1.40;1.30;;;;;;;14.81;76.70;97778.56;6242953;23;20100;-87
2022/09/09 03:11:59;;;;;;;2.33;1.15;;;;;;;14.81;76.39;97775.91;6242341;23;20024;-87
2022/09/09 03:14:25;;;;;;;1.20;1.10;;;;;;;14.75;76.58;97777.66;6242163;23;20142;-88
2022/09/09 03:16:53;;;;;;;1.23;1.10;;;;;;;14.75;76.31;97782.94;6242078;23;20026;-86
2022/09/09 03:19:21;;;;;;;2.17;1.40;;;;;;;14.69;76.88;97774.13;6242999;23;20051;-88
2022/09/09 03:21:48;;;;;;;1.35;1.20;;;;;;;14.71;77.01;97765.97;6215351;23;20020;-87
2022/09/09 03:24:15;;;;;;;1.38;1.27;;;;;;;14.69;76.83;97775.94;6190137;23;20354;-86
2022/09/09 03:26:45;;;;;;;1.25;1.20;;;;;;;14.69;76.87;97774.13;6245328;22;20016;-83
2022/09/09 03:29:12;;;;;;;1.58;1.17;;;;;;;14.66;76.89;97773.78;6241715;22;20030;-88
2022/09/09 03:31:57;;;;;;;1.95;1.48;;;;;;;14.62;77.60;97770.78;6251365;22;20035;-86
2022/09/09 03:34:44;;;;;;;1.60;1.50;;;;;;;14.66;77.15;97774.59;6252224;22;20035;-88
2022/09/09 03:37:17;;;;;;;2.13;1.30;;;;;;;14.67;77.21;97762.97;6248982;22;20011;-85
2022/09/09 03:39:44;;;;;;;3.03;1.92;;;;;;;14.65;77.30;97762.41;6248091;22;20026;-85
2022/09/09 03:42:18;;;;;;;1.70;1.48;;;;;;;14.68;77.21;97763.78;6247329;22;20020;-86
2022/09/09 03:44:50;;;;;;;1.40;1.20;;;;;;;14.65;77.41;97762.41;6247822;22;20019;-84
2022/09/09 03:47:23;;;;;;;1.38;1.27;;;;;;;14.70;77.20;97774.94;6248540;22;20047;-88
2022/09/09 03:49:54;;;;;;;1.50;1.40;;;;;;;14.65;77.32;97767.69;6274308;22;20069;-84
2022/09/09 03:52:24;;;;;;;2.17;1.50;;;;;;;14.58;77.49;97758.31;6274512;22;20090;-86
2022/09/09 03:54:51;;;;;;;1.85;1.30;;;;;;;14.55;77.63;97756.94;6222210;22;20054;-83
2022/09/09 03:57:19;;;;;;;1.75;1.52;;;;;;;14.53;77.66;97771.41;6247744;22;20020;-85
2022/09/09 03:59:46;;;;;;;1.48;1.38;;;;;;;14.50;78.06;97772.66;6273629;22;20011;-86
2022/09/09 04:02:12;;;;;;;1.98;1.40;;;;;;;14.50;78.22;97764.75;6249142;22;20019;-84
2022/09/09 04:04:39;;;;;;;1.40;1.20;;;;;;;14.55;77.99;97756.94;6274921;22;20051;-83
2022/09/09 04:07:06;;;;;;;2.40;1.33;;;;;;;14.57;77.75;97761.97;6248444;22;20015;-83
2022/09/09 04:09:33;;;;;;;1.75;1.45;;;;;;;14.62;77.58;97762.88;6275241;22;20069;-84
2022/09/09 04:12:00;;;;;;;1.30;1.20;;;;;;;14.63;77.54;97751.31;6247166;22;20528;-84
2022/09/09 04:14:28;;;;;;;1.98;1.30;;;;;;;14.59;77.76;97752.81;6247696;22;20445;-84
2022/09/09 04:16:57;;;;;;;2.50;1.20;;;;;;;14.64;77.63;97767.94;6275249;22;20022;-84
2022/09/09 04:19:23;;;;;;;1.70;1.55;;;;;;;14.64;77.78;97771.38;6247477;22;20027;-86
2022/09/09 04:21:51;;;;;;;2.08;1.30;;;;;;;14.64;77.72;97766.09;6273750;22;20086;-86
2022/09/09 04:24:18;;;;;;;1.17;1.05;;;;;;;14.72;77.46;97768.38;6247948;22;20086;-85
2022/09/09 04:26:45;;;;;;;1.15;1.02;;;;;;;14.75;77.38;97766.28;6217323;23;20020;-86
2022/09/09 04:29:12;;;;;;;1.30;1.20;;;;;;;14.82;77.56;97773.06;6215839;23;20023;-87
2022/09/09 04:31:41;;;;;;;1.70;1.20;;;;;;;14.76;77.23;97758.16;6244268;23;20035;-89
2022/09/09 04:34:09;;;;;;;1.52;1.38;;;;;;;14.86;76.94;97763.63;6217473;23;20066;-87
2022/09/09 04:36:36;;;;;;;2.22;1.40;;;;;;;14.88;77.27;97776.59;6217688;23;20051;-87
2022/09/09 04:39:02;;;;;;;1.42;1.33;;;;;;;14.83;77.54;97779.94;6216425;23;20020;-86
2022/09/09 04:41:31;;;;;;;3.50;1.30;;;;;;;14.77;77.56;97766.88;6217628;23;20020;-85
2022/09/09 04:43:58;;;;;;;1.48;1.35;;;;;;;14.82;77.24;97773.06;6243513;23;20398;-87
2022/09/09 04:46:25;;;;;;;1.40;1.30;;;;;;;14.70;77.62;97765.16;6244408;23;20052;-87
2022/09/09 04:48:52;;;;;;;1.83;1.15;;;;;;;14.81;77.61;97781.19;6192401;23;20022;-87
2022/09/09 04:51:19;;;;;;;1.75;1.65;;;;;;;14.77;77.92;97765.03;6218149;23;20058;-86
2022/09/09 04:53:47;;;;;;;2.78;1.60;;;;;;;14.78;77.86;97765.84;6244336;23;20020;-86
2022/09/09 04:56:17;;;;;;;1.45;1.25;;;;;;;14.84;77.47;97775.47;6215442;23;20026;-83
2022/09/09 04:58:44;;;;;;;2.15;1.50;;;;;;;14.79;77.49;97770.06;6191481;23;20020;-87
2022/09/09 05:01:17;;;;;;;1.52;1.42;;;;;;;14.80;77.52;97783.03;6243547;23;20026;-85
2022/09/09 05:03:45;;;;;;;1.60;1.50;;;;;;;14.72;78.10;97784.22;6242392;23;20020;-87
2022/09/09 05:06:21;;;;;;;1.42;1.33;;;;;;;14.80;77.48;97785.66;6217232;23;20026;-83
2022/09/09 05:08:49;;;;;;;4.10;1.50;;;;;;;14.81;77.91;97789.91;6242698;23;20020;-85
2022/09/09 05:11:20;;;;;;;1.58;1.48;;;;;;;14.82;77.75;97793.38;6216438;23;20103;-86
2022/09/09 05:13:47;;;;;;;2.70;1.40;;;;;;;14.72;78.31;97792.13;6216088;23;20027;-86
2022/09/09 05:16:14;;;;;;;1.77;1.40;;;;;;;14.82;78.11;97798.66;6191070;23;20350;-86
2022/09/09 05:18:45;;;;;;;1.30;1.20;;;;;;;14.92;77.82;97804.13;6242352;23;20034;-83
2022/09/09 05:21:15;;;;;;;1.92;1.40;;;;;;;14.99;77.92;97815.34;6216032;23;20055;-81
2022/09/09 05:23:42;;;;;;;2.58;1.40;;;;;;;14.95;77.44;97793.09;6242053;23;20047;-82
2022/09/09 05:26:16;;;;;;;1.33;1.23;;;;;;;15.10;77.01;97811.06;6242373;22;20024;-86
2022/09/09 05:28:45;;;;;;;1.00;1.00;;;;;;;15.08;76.79;97818.44;6239420;23;20051;-85
2022/09/09 05:31:16;;;;;;;1.13;1.00;;;;;;;15.15;76.97;97817.25;6242722;23;20047;-83
2022/09/09 05:33:45;;;;;;;1.80;1.30;;;;;;;15.16;77.08;97821.50;6242216;23;20016;-85
2022/09/09 05:36:16;;;;;;;1.48;1.30;;;;;;;15.19;76.64;97813.09;6190666;23;20102;-86
2022/09/09 05:38:44;;;;;;;1.33;1.20;;;;;;;15.23;76.51;97811.63;6243176;23;20380;-87
2022/09/09 05:41:12;;;;;;;2.60;1.23;;;;;;;15.15;76.59;97798.75;6190780;23;20115;-85
2022/09/09 05:43:39;;;;;;;1.75;1.40;;;;;;;15.25;76.31;97814.81;6243230;23;20095;-86
2022/09/09 05:46:12;;;;;;;1.90;1.50;;;;;;;15.29;76.46;97815.13;6242608;23;20039;-86
2022/09/09 05:48:42;;;;;;;3.03;1.30;;;;;;;15.38;76.05;97821.66;6243224;23;20016;-86
2022/09/09 05:51:17;;;;;;;1.15;1.08;;;;;;;15.46;75.91;97820.44;6243822;23;20027;-88
2022/09/09 05:53:45;;;;;;;1.70;1.20;;;;;;;15.53;76.08;97836.97;6243239;23;20016;-84
2022/09/09 05:56:17;;;;;;;2.30;1.30;;;;;;;15.55;75.85;97834.09;6214841;23;20484;-86
2022/09/09 05:58:44;;;;;;;1.50;1.35;;;;;;;15.49;76.17;97820.00;6241381;23;20020;-84
2022/09/09 06:01:16;;;;;;;1.08;1.00;;;;;;;15.69;76.12;97820.34;6217818;23;20016;-85
2022/09/09 06:03:46;;;;;;;1.45;1.30;;;;;;;15.67;75.53;97816.38;6243422;23;20397;-86
2022/09/09 06:06:24;;;;;;;2.15;1.30;;;;;;;15.74;75.09;97817.81;6242442;23;20048;-84
2022/09/09 06:08:53;;;;;;;1.92;1.30;;;;;;;15.71;74.79;97833.34;6216304;23;20636;-85
2022/09/09 06:11:24;;;;;;;1.95;1.35;;;;;;;15.75;74.90;97813.31;6184640;23;20035;-88
2022/09/09 06:13:53;;;;;;;1.17;1.08;;;;;;;15.81;75.21;97825.56;6215766;23;20016;-85
2022/09/09 06:16:24;;;;;;;1.30;1.20;;;;;;;15.84;74.60;97825.13;6243608;23;20020;-84
2022/09/09 06:18:54;;;;;;;1.95;1.50;;;;;;;15.87;74.45;97827.25;6242729;23;20044;-83
2022/09/09 06:21:27;;;;;;;2.50;1.13;;;;;;;15.97;74.38;97822.16;6243133;23;20315;-85
2022/09/09 06:23:56;;;;;;;1.33;1.23;;;;;;;16.01;74.24;97822.44;6245125;23;20020;-86
2022/09/09 06:26:33;;;;;;;2.95;1.65;;;;;;;15.96;73.81;97819.75;6245061;22;20022;-88
2022/09/09 06:29:03;;;;;;;1.50;1.40;;;;;;;16.05;73.61;97827.03;6237667;23;20016;-86
2022/09/09 06:31:49;;;;;;;1.08;1.02;;;;;;;16.33;73.78;97826.13;6238017;23;20031;-88
2022/09/09 06:34:32;;;;;;;1.20;1.10;;;;;;;16.69;72.53;97823.97;6241553;23;20582;-84
2022/09/09 06:36:59;;;;;;;2.08;1.20;;;;;;;16.88;71.03;97826.34;6241452;23;20115;-89
2022/09/09 06:39:25;;;;;;;3.65;1.42;;;;;;;16.81;70.76;97818.59;6236101;23;20020;-88
2022/09/09 06:41:53;;;;;;;1.40;1.23;;;;;;;16.73;70.76;97824.28;6241851;23;20016;-87
2022/09/09 06:44:19;;;;;;;3.42;1.30;;;;;;;16.85;71.18;97827.63;6215834;23;20107;-87
2022/09/09 06:46:47;;;;;;;1.92;0.98;;;;;;;17.02;71.08;97828.38;6240759;23;20601;-86
2022/09/09 06:49:14;;;;;;;1.23;1.13;;;;;;;17.19;70.31;97828.28;6241796;23;20617;-86
2022/09/09 06:51:42;;;;;;;1.63;1.05;;;;;;;17.37;70.19;97825.31;6245580;23;20016;-87
2022/09/09 06:54:12;;;;;;;1.40;1.23;;;;;;;17.69;67.96;97832.50;6218144;23;20497;-86
2022/09/09 06:56:42;;;;;;;1.40;1.10;;;;;;;17.75;68.17;97831.56;6216827;23;20066;-87
2022/09/09 06:59:11;;;;;;;1.45;1.35;;;;;;;17.88;67.68;97840.94;6216773;23;20424;-87
2022/09/09 07:01:51;;;;;;;2.08;1.30;;;;;;;17.93;67.68;97838.31;6244084;23;20043;-85
2022/09/09 07:04:21;;;;;;;6.55;1.60;;;;;;;17.87;66.39;97834.84;6242938;23;20028;-85
2022/09/09 07:06:48;;;;;;;3.35;1.40;;;;;;;17.99;66.84;97844.47;6243375;23;20024;-88
2022/09/09 07:09:16;;;;;;;1.55;1.25;;;;;;;18.04;66.15;97833.88;6191821;23;20430;-87
2022/09/09 07:11:52;;;;;;;1.35;1.13;;;;;;;17.90;66.96;97831.66;6245441;23;20020;-89
2022/09/09 07:14:20;;;;;;;2.30;1.13;;;;;;;17.90;67.16;97834.31;6245645;23;20027;-85
2022/09/09 07:16:47;;;;;;;1.83;1.50;;;;;;;17.99;66.18;97828.53;6245289;23;20714;-83
2022/09/09 07:19:14;;;;;;;2.47;1.40;;;;;;;18.51;64.52;97843.78;6245507;23;20042;-82
2022/09/09 07:21:42;;;;;;;1.73;1.20;;;;;;;18.92;64.18;97835.00;6245685;23;20016;-85
2022/09/09 07:24:11;;;;;;;2.38;1.58;;;;;;;19.27;62.61;97846.81;6220076;23;20034;-85
2022/09/09 07:26:40;;;;;;;3.30;1.70;;;;;;;19.40;62.11;97845.50;6220180;23;20027;-84
2022/09/09 07:29:08;;;;;;;1.95;1.48;;;;;;;19.46;60.90;97842.59;6219465;23;20020;-86
2022/09/09 07:31:39;;;;;;;1.63;1.20;;;;;;;19.32;61.04;97849.50;6219654;23;20019;-83
2022/09/09 07:34:06;;;;;;;;;;;;;;;19.51;61.04;97850.59;6245769;23;20020;-84
2022/09/09 07:36:37;;;;;;;1.40;1.30;;;;;;;19.45;59.68;97837.56;6244894;23;19926;-86
2022/09/09 07:39:09;;;;;;;2.22;1.30;;;;;;;19.47;59.51;97848.72;6215754;23;20016;-84
2022/09/09 07:41:47;;;;;;;1.55;1.10;;;;;;;19.74;59.43;97840.56;6244191;23;20434;-83
2022/09/09 07:44:21;;;;;;;2.60;1.20;;;;;;;20.14;58.68;97852.25;6217865;23;20027;-85
2022/09/09 07:46:48;;;;;;;2.13;1.65;;;;;;;20.13;56.48;97842.69;6217601;23;20028;-88
2022/09/09 07:49:15;;;;;;;1.80;1.20;;;;;;;20.00;56.27;97839.50;6243419;23;20335;-84
2022/09/09 07:51:46;;;;;;;1.10;1.10;;;;;;;20.13;55.97;97848.00;6245539;23;20326;-87
2022/09/09 07:54:19;;;;;;;2.65;1.30;;;;;;;20.36;55.70;97860.78;6214716;23;20013;-86
2022/09/09 07:56:47;;;;;;;5.22;1.40;;;;;;;20.07;56.06;97851.75;6248867;23;20016;-86
2022/09/09 07:59:13;;;;;;;1.33;1.20;;;;;;;19.80;59.34;97855.47;6246621;23;20345;-86
2022/09/09 08:01:45;;;;;;;1.25;0.95;;;;;;;19.85;58.63;97858.13;6216839;23;20031;-86
2022/09/09 08:04:17;;;;;;;1.13;1.02;;;;;;;19.85;57.66;97852.00;6243704;23;20023;-86
2022/09/09 08:06:48;;;;;;;1.60;1.25;;;;;;;19.62;57.16;97858.63;6243971;23;20023;-87
2022/09/09 08:09:16;;;;;;;1.05;0.82;;;;;;;19.57;58.31;97855.94;6216336;23;20095;-86
2022/09/09 08:11:43;;;;;;;1.58;0.85;;;;;;;20.04;57.66;97856.53;6216427;23;20341;-89
2022/09/09 08:14:12;;;;;;;2.67;1.30;;;;;;;20.24;57.88;97862.91;6241903;23;20020;-85
2022/09/09 08:16:46;;;;;;;4.82;1.20;;;;;;;20.37;57.17;97859.69;6242681;23;20020;-87
2022/09/09 08:19:14;;;;;;;1.15;0.90;;;;;;;20.33;57.62;97858.63;6240699;23;20020;-88
2022/09/09 08:21:43;;;;;;;1.58;1.10;;;;;;;20.26;57.59;97863.44;6241960;23;20020;-87
2022/09/09 08:24:12;;;;;;;1.70;1.08;;;;;;;20.30;57.03;97867.97;6240521;23;20054;-88
2022/09/09 08:26:43;;;;;;;1.90;1.00;;;;;;;20.60;56.27;97857.56;6212730;23;20028;-88
2022/09/09 08:29:12;;;;;;;1.10;1.00;;;;;;;20.81;55.40;97859.09;6241112;23;20028;-86
2022/09/09 08:31:54;;;;;;;1.77;1.37;;;;;;;20.89;55.14;97860.44;6240817;23;20461;-85
2022/09/09 08:34:22;;;;;;;2.17;1.10;;;;;;;21.01;55.36;97861.72;6241016;23;20354;-86
2022/09/09 08:36:50;;;;;;;1.30;1.00;;;;;;;21.18;54.03;97858.72;6238654;23;20028;-85
2022/09/09 08:39:20;;;;;;;3.80;1.55;;;;;;;21.13;53.51;97863.28;6235229;23;20020;-85
2022/09/09 08:41:59;;;;;;;1.48;0.90;;;;;;;21.13;53.60;97861.41;6240952;23;20414;-82
2022/09/09 08:44:35;;;;;;;3.28;1.05;;;;;;;21.07;54.98;97868.63;6214907;23;20026;-83
2022/09/09 08:47:24;;;;;;;2.10;1.20;;;;;;;21.10;55.41;97868.06;6239313;23;20031;-83
2022/09/09 08:50:33;;;;;;;1.30;1.00;;;;;;;21.36;53.82;97862.66;6213092;23;20022;-85
2022/09/09 08:53:08;;;;;;;2.50;0.90;;;;;;;21.58;52.91;97863.06;6236383;23;20012;-83
2022/09/09 08:55:59;;;;;;;1.45;1.10;;;;;;;21.72;52.51;97862.47;6237466;23;20680;-82
2022/09/09 08:58:30;;;;;;;3.08;1.27;;;;;;;21.35;52.71;97853.88;6236494;23;20438;-82
2022/09/09 09:01:09;;;;;;;2.63;0.98;;;;;;;21.50;53.34;97865.50;6236971;23;20142;-84
2022/09/09 09:04:03;;;;;;;3.67;1.05;;;;;;;21.76;52.92;97858.13;6236196;23;20021;-83
2022/09/09 09:06:39;;;;;;;1.48;0.90;;;;;;;21.92;52.28;97851.63;6208362;23;20028;-83
2022/09/09 09:09:48;;;;;;;1.63;0.98;;;;;;;21.78;51.21;97856.81;6208715;23;20458;-84
2022/09/09 09:12:21;;;;;;;0.50;0.50;;;;;;;22.05;51.21;97856.31;6235710;23;20015;-85
2022/09/09 09:14:49;;;;;;;1.40;0.93;;;;;;;22.31;52.00;97858.78;6235150;23;20024;-83
2022/09/09 09:17:23;;;;;;;4.28;0.90;;;;;;;22.42;51.04;97854.94;6235488;23;20020;-83
2022/09/09 09:19:50;;;;;;;1.05;1.00;;;;;;;22.50;50.52;97846.34;6208955;23;20020;-85
2022/09/09 09:22:22;;;;;;;2.17;0.80;;;;;;;22.47;50.09;97856.78;6233710;23;20020;-83
2022/09/09 09:24:56;;;;;;;2.35;0.90;;;;;;;21.87;50.75;97871.13;6234605;22;20027;-80
2022/09/09 09:27:43;;;;;;;2.95;0.82;;;;;;;21.35;50.24;97859.19;6211360;23;20016;-82
2022/09/09 09:30:21;;;;;;;1.92;0.57;;;;;;;21.02;50.47;97855.31;6237484;23;20020;-81
2022/09/09 09:33:26;;;;;;;3.53;0.80;;;;;;;20.76;51.35;97848.47;6238137;23;20020;-82
2022/09/09 09:35:53;;;;;;;2.15;0.60;;;;;;;20.65;52.08;97850.38;6184455;23;20031;-82
2022/09/09 09:38:24;;;;;;;3.25;0.98;;;;;;;20.68;52.63;97843.69;6232661;23;20015;-82
2022/09/09 09:41:11;;;;;;;1.27;0.60;;;;;;;21.11;51.18;97840.34;6236955;23;20016;-83
2022/09/09 09:43:42;;;;;;;2.03;0.60;;;;;;;21.44;50.71;97835.41;6210115;23;20086;-81
2022/09/09 09:46:25;;;;;;;1.83;0.57;;;;;;;21.70;49.51;97832.56;6236945;23;20024;-80
2022/09/09 09:48:59;;;;;;;1.88;0.60;;;;;;;22.00;50.72;97832.31;6237383;23;20032;-81
2022/09/09 09:51:30;;;;;;;1.05;0.60;;;;;;;22.04;49.88;97832.56;6236890;23;20022;-80
2022/09/09 09:54:38;;;;;;;0.63;0.40;;;;;;;22.27;48.41;97836.41;6184828;23;20023;-82
2022/09/09 09:57:14;;;;;;;1.73;0.75;;;;;;;22.50;49.66;97826.84;6208208;23;20024;-81
2022/09/09 09:59:42;;;;;;;2.17;0.85;;;;;;;22.38;49.16;97832.56;6210993;23;20024;-81
2022/09/09 10:02:17;;;;;;;2.05;0.75;;;;;;;22.19;48.77;97829.81;6235682;23;20024;-81
2022/09/09 10:04:47;;;;;;;1.33;0.70;;;;;;;21.94;48.63;97833.44;6206003;23;20027;-81
2022/09/09 10:07:22;;;;;;;;;;;;;;;21.76;49.86;97834.91;6206387;23;20373;-82
2022/09/09 10:09:57;;;;;;;0.75;0.40;;;;;;;21.62;50.31;97837.41;6232439;23;19950;-81
2022/09/09 10:12:48;;;;;;;1.35;0.40;;;;;;;21.58;51.33;97825.69;6205621;23;20027;-80
2022/09/09 10:15:58;;;;;;;0.88;0.60;;;;;;;21.71;49.18;97823.47;6208090;23;20019;-79
2022/09/09 10:19:25;;;;;;;2.40;0.70;;;;;;;22.00;48.99;97816.31;6209855;23;20095;-79
2022/09/09 10:22:06;;;;;;;1.70;0.70;;;;;;;22.35;49.47;97812.53;6103425;23;20024;-80
2022/09/09 10:24:39;;;;;;;;;;;;;;;22.50;48.51;97808.94;6237376;22;20024;-82
2022/09/09 10:27:39;;;;;;;2.95;0.63;;;;;;;22.79;47.39;97800.03;6236555;23;19923;-82
2022/09/09 10:30:50;;;;;;;1.55;0.80;;;;;;;23.02;46.23;97803.81;6237959;23;20740;-82
2022/09/09 10:33:37;;;;;;;;;;;;;;;23.17;45.98;97809.75;6239209;23;20442;-82
2022/09/09 10:36:21;;;;;;;2.38;0.82;;;;;;;23.10;44.45;97805.84;6210696;23;20325;-82
2022/09/09 10:39:05;;;;;;;1.88;0.70;;;;;;;23.02;44.79;97803.81;6206422;23;20116;-83
2022/09/09 10:41:54;;;;;;;1.25;0.60;;;;;;;23.05;45.89;97803.25;6213055;23;20016;-82
2022/09/09 10:44:42;;;;;;;1.20;0.70;;;;;;;23.02;45.55;97783.19;6190755;23;20024;-83
2022/09/09 10:47:33;;;;;;;1.10;0.52;;;;;;;22.84;47.16;97787.41;6243494;23;20046;-81
2022/09/09 10:50:27;;;;;;;1.00;0.43;;;;;;;22.94;46.29;97789.19;6244239;23;20119;-82
2022/09/09 10:53:36;;;;;;;0.52;0.40;;;;;;;22.90;46.01;97788.16;6222043;23;20020;-82
2022/09/09 10:56:15;;;;;;;1.75;0.60;;;;;;;22.77;46.39;97791.50;6242141;23;20020;-81
2022/09/09 10:58:58;;;;;;;1.85;0.60;;;;;;;23.12;45.60;97798.31;6243856;23;20488;-83
2022/09/09 11:01:44;;;;;;;1.77;0.73;;;;;;;22.99;42.27;97789.13;6242879;23;20022;-81
2022/09/09 11:04:26;;;;;;;2.13;0.75;;;;;;;23.30;43.01;97788.72;6243661;23;20050;-83
2022/09/09 11:06:55;;;;;;;2.03;0.90;;;;;;;23.69;43.43;97786.56;6216357;23;20019;-83
2022/09/09 11:09:36;;;;;;;3.35;0.60;;;;;;;23.91;44.02;97793.16;6242893;23;20517;-83
2022/09/09 11:12:05;;;;;;;1.60;0.70;;;;;;;24.22;43.22;97793.41;6242787;23;20016;-82
2022/09/09 11:14:46;;;;;;;2.28;0.55;;;;;;;24.54;41.79;97790.72;6243869;23;20087;-83
2022/09/09 11:17:24;;;;;;;1.73;0.75;;;;;;;24.77;44.34;97796.97;6244791;23;20430;-82
2022/09/09 11:19:51;;;;;;;1.05;0.80;;;;;;;24.56;40.77;97782.38;6217624;23;20016;-85
2022/09/09 11:23:02;;;;;;;1.75;0.73;;;;;;;24.52;42.71;97792.88;6245352;23;20070;-85
2022/09/09 11:25:57;;;;;;;3.15;0.75;;;;;;;24.90;42.09;97794.59;6219061;23;20039;-84
2022/09/09 11:29:10;;;;;;;1.83;0.80;;;;;;;25.00;39.60;97783.63;6244907;23;20027;-86
2022/09/09 11:32:23;;;;;;;1.17;0.60;;;;;;;24.62;40.42;97786.53;6218426;23;20070;-86
2022/09/09 11:35:09;;;;;;;2.35;0.95;;;;;;;24.59;42.62;97776.44;6243888;23;20024;-84
2022/09/09 11:38:17;;;;;;;1.48;0.60;;;;;;;24.52;41.60;97773.31;6244849;23;20027;-84
2022/09/09 11:40:47;;;;;;;1.77;0.63;;;;;;;24.37;40.83;97762.91;6244952;23;20345;-84
2022/09/09 11:43:51;;;;;;;0.98;0.60;;;;;;;24.47;40.67;97763.53;6245709;23;20020;-83
2022/09/09 11:46:38;;;;;;;1.13;0.70;;;;;;;24.50;39.27;97762.13;6244183;23;20077;-84
2022/09/09 11:49:26;;;;;;;2.85;0.70;;;;;;;24.38;38.21;97756.47;6245127;23;20015;-85
2022/09/09 11:51:54;;;;;;;2.13;0.70;;;;;;;24.55;38.45;97756.66;6243692;23;20020;-85
2022/09/09 11:54:44;;;;;;;1.13;0.60;;;;;;;24.98;37.13;97761.69;6191824;23;20028;-85
2022/09/09 11:57:35;;;;;;;1.80;0.65;;;;;;;25.41;37.86;97758.59;6243991;23;20345;-85
2022/09/09 12:00:05;;;;;;;1.65;0.80;;;;;;;25.29;37.03;97761.81;6243642;23;20448;-86
2022/09/09 12:02:32;;;;;;;1.15;0.65;;;;;;;25.06;38.61;97769.03;6244108;23;20020;-86
2022/09/09 12:05:08;;;;;;;2.15;0.70;;;;;;;25.27;37.69;97770.19;6243866;23;20020;-85
2022/09/09 12:07:53;;;;;;;0.93;0.52;;;;;;;25.24;37.06;97765.41;6243818;23;20016;-84
2022/09/09 12:10:33;;;;;;;2.20;0.60;;;;;;;24.58;37.25;97766.78;6217259;23;20020;-85
2022/09/09 12:13:23;;;;;;;2.47;0.63;;;;;;;24.18;38.62;97761.09;6216591;23;20020;-86
2022/09/09 12:15:53;;;;;;;2.33;0.80;;;;;;;23.77;37.95;97759.09;6216556;23;20016;-85
2022/09/09 12:18:26;;;;;;;2.58;0.50;;;;;;;23.61;38.18;97755.06;6217714;23;20099;-86